Time;durP1;ratioP1;P1;durP2;ratioP2;P2;SDS_P1;SDS_P2;PMS_P1;PMS_P2;Temp;Humidity;BMP_temperature;BMP_pressure;BME280_temperature;BME280_humidity;BME280_pressure;Samples;Min_cycle;Max_cycle;Signal;HPM_P1;HPM_P2
2022/10/03 00:02:15;;;;;;;;;;;;;;;20.08;62.12;96309.69;10524822;28;2604;-42
2022/10/03 00:07:22;;;;;;;;;;;;;;;20.04;61.87;96301.53;10526466;28;2641;-45
2022/10/03 00:12:52;;;;;;;;;;;;;;;20.04;62.04;96301.53;10518514;28;2653;-44
2022/10/03 00:17:58;;;;;;;;;;;;;;;20.03;61.67;96313.06;10522187;28;2634;-43
2022/10/03 00:23:01;;;;;;;;;;;;;;;20.02;61.65;96318.59;10526702;28;2592;-43
2022/10/03 00:28:04;;;;;;;;;;;;;;;20.02;61.78;96323.88;10528289;28;2614;-43
2022/10/03 00:33:05;;;;;;;;;;;;;;;20.00;61.68;96325.97;10534155;28;2593;-43
2022/10/03 00:38:05;;;;;;;;;;;;;;;20.00;61.66;96331.22;10526722;28;2510;-45
2022/10/03 00:43:09;;;;;;;;;;;;;;;20.00;61.63;96336.50;10522182;28;2601;-42
2022/10/03 00:48:28;;;;;;;;;;;;;;;19.98;61.70;96336.75;10518883;28;2713;-43
2022/10/03 00:53:40;;;;;;;;;;;;;;;19.98;61.80;96336.75;10520345;28;2476;-45
2022/10/03 00:58:47;;;;;;;;;;;;;;;19.97;61.63;96350.19;10511626;28;2302;-42
2022/10/03 01:04:04;;;;;;;;;;;;;;;19.95;61.62;96346.97;10543003;28;2723;-43
2022/10/03 01:09:13;;;;;;;;;;;;;;;19.94;61.64;96354.09;10529434;28;3149;-42
2022/10/03 01:14:19;;;;;;;;;;;;;;;19.94;61.78;96353.31;10534443;28;2578;-42
2022/10/03 01:19:20;;;;;;;;;;;;;;;19.93;61.60;96359.59;10519444;28;2390;-44
2022/10/03 01:24:33;;;;;;;;;;;;;;;19.91;61.75;96351.97;10544898;27;2831;-44
2022/10/03 01:35:34;;;;;;;;;;;;;;;19.89;61.67;96350.63;10532996;28;2551;-43
2022/10/03 01:40:54;;;;;;;;;;;;;;;19.89;61.75;96363.78;10503810;28;2787;-43
2022/10/03 01:45:54;;;;;;;;;;;;;;;19.87;61.57;96373.78;10487433;28;2583;-43
2022/10/03 01:51:10;;;;;;;;;;;;;;;19.88;61.47;96375.38;10526883;28;2598;-43
2022/10/03 01:56:24;;;;;;;;;;;;;;;19.87;61.71;96392.19;10519440;28;2702;-43
2022/10/03 02:01:27;;;;;;;;;;;;;;;19.85;61.72;96397.72;10530621;28;2519;-43
2022/10/03 02:06:44;;;;;;;;;;;;;;;19.84;61.45;96398.78;10519301;28;2591;-43
2022/10/03 02:11:44;;;;;;;;;;;;;;;19.83;61.47;96405.06;10518203;28;2650;-42
2022/10/03 02:17:02;;;;;;;;;;;;;;;19.82;61.39;96405.31;10512727;28;2792;-44
2022/10/03 02:22:12;;;;;;;;;;;;;;;19.81;61.40;96403.72;10513364;28;2717;-43
2022/10/03 02:27:19;;;;;;;;;;;;;;;19.79;61.64;96398.72;10530852;28;2676;-45
2022/10/03 02:32:35;;;;;;;;;;;;;;;19.78;61.42;96399.78;10519679;28;2685;-42
2022/10/03 02:37:54;;;;;;;;;;;;;;;19.77;61.42;96403.44;10529569;28;2255;-46
2022/10/03 02:43:14;;;;;;;;;;;;;;;19.78;61.29;96398.97;10522694;28;2598;-45
2022/10/03 02:48:33;;;;;;;;;;;;;;;19.77;61.41;96402.63;10521197;28;2609;-43
2022/10/03 02:53:34;;;;;;;;;;;;;;;19.76;61.51;96407.13;10507827;28;2400;-47
2022/10/03 02:58:48;;;;;;;;;;;;;;;19.76;60.99;96406.34;10518719;28;2249;-42
2022/10/03 03:04:07;;;;;;;;;;;;;;;19.74;61.31;96421.56;10539630;28;2412;-44
2022/10/03 03:09:22;;;;;;;;;;;;;;;19.73;61.19;96427.88;10522401;28;2682;-43
2022/10/03 03:14:40;;;;;;;;;;;;;;;19.72;61.35;96421.81;10527822;28;2571;-44
2022/10/03 03:19:49;;;;;;;;;;;;;;;19.73;61.15;96428.66;10512589;28;2274;-43
2022/10/03 03:25:09;;;;;;;;;;;;;;;19.72;61.09;96431.56;10518178;28;2605;-43
2022/10/03 03:30:11;;;;;;;;;;;;;;;19.71;61.21;96443.91;10517659;28;2575;-43
2022/10/03 03:35:32;;;;;;;;;;;;;;;19.74;60.87;96447.88;10524908;28;2613;-45
2022/10/03 03:40:41;;;;;;;;;;;;;;;19.77;61.49;96450.78;10524313;28;2642;-41
2022/10/03 03:46:14;;;;;;;;;;;;;;;19.81;61.79;96448.44;10524705;28;2582;-43
2022/10/03 03:51:27;;;;;;;;;;;;;;;19.85;61.57;96446.91;10520220;28;2268;-42
2022/10/03 03:56:32;;;;;;;;;;;;;;;19.88;62.10;96451.66;10527471;28;2788;-45
2022/10/03 04:01:51;;;;;;;;;;;;;;;19.92;61.98;96450.13;10517517;28;2533;-43
2022/10/03 04:06:56;;;;;;;;;;;;;;;19.97;61.78;96455.44;10519864;28;2532;-45
2022/10/03 04:12:09;;;;;;;;;;;;;;;20.00;61.60;96450.44;10524048;28;2606;-42
2022/10/03 04:23:05;;;;;;;;;;;;;;;20.07;61.95;96461.53;10530493;28;2599;-43
2022/10/03 04:28:25;;;;;;;;;;;;;;;20.10;61.84;96454.97;10545388;28;2610;-42
2022/10/03 04:33:44;;;;;;;;;;;;;;;20.13;62.18;96457.88;10529729;28;2687;-43
2022/10/03 04:39:03;;;;;;;;;;;;;;;20.16;62.28;96456.59;10527159;28;2573;-45
2022/10/03 04:44:22;;;;;;;;;;;;;;;20.18;61.89;96450.03;10528297;28;2630;-43
2022/10/03 04:49:31;;;;;;;;;;;;;;;20.22;61.87;96460.88;10529261;28;2265;-45
2022/10/03 04:54:47;;;;;;;;;;;;;;;20.22;61.78;96448.50;10537214;28;2597;-46
2022/10/03 04:59:49;;;;;;;;;;;;;;;20.25;61.70;96449.84;10526054;28;2315;-43
2022/10/03 05:05:09;;;;;;;;;;;;;;;20.28;61.72;96455.38;10525162;28;2555;-44
2022/10/03 05:10:22;;;;;;;;;;;;;;;20.31;61.62;96455.94;10530651;28;2518;-42
2022/10/03 05:15:32;;;;;;;;;;;;;;;20.33;61.28;96457.25;10537008;28;2710;-44
2022/10/03 05:20:51;;;;;;;;;;;;;;;20.34;61.21;96456.19;10531016;28;2649;-42
2022/10/03 05:26:14;;;;;;;;;;;;;;;20.35;61.60;96463.06;10528730;28;2355;-44
2022/10/03 05:31:32;;;;;;;;;;;;;;;20.38;61.41;96477.56;10540752;28;2643;-43
2022/10/03 05:36:34;;;;;;;;;;;;;;;20.40;61.50;96476.28;10525335;28;2435;-43
2022/10/03 05:41:35;;;;;;;;;;;;;;;20.42;61.28;96478.66;10510772;28;2587;-43
2022/10/03 05:46:38;;;;;;;;;;;;;;;20.42;61.23;96483.91;10531998;28;2347;-42
2022/10/03 05:51:49;;;;;;;;;;;;;;;20.43;61.39;96491.56;10512812;28;2790;-46
2022/10/03 05:56:56;;;;;;;;;;;;;;;20.45;60.84;96500.00;10551538;27;2468;-43
2022/10/03 06:02:17;;;;;;;;;;;;;;;20.47;61.17;96507.63;10544124;28;2405;-44
2022/10/03 06:07:22;;;;;;;;;;;;;;;20.49;61.15;96502.91;10533490;28;2442;-42
2022/10/03 06:12:36;;;;;;;;;;;;;;;20.50;60.69;96517.66;10510177;28;2528;-42
2022/10/03 06:17:47;;;;;;;;;;;;;;;20.52;60.73;96523.47;10551085;27;2430;-43
2022/10/03 06:23:07;;;;;;;;;;;;;;;20.52;60.84;96532.19;10553874;27;2567;-42
2022/10/03 06:28:20;;;;;;;;;;;;;;;20.52;60.68;96545.34;10556209;27;2332;-43
2022/10/03 06:33:39;;;;;;;;;;;;;;;20.52;60.57;96547.97;10536735;28;2937;-43
2022/10/03 06:38:39;;;;;;;;;;;;;;;20.54;60.45;96545.88;10516042;28;2614;-42
2022/10/03 06:43:42;;;;;;;;;;;;;;;20.57;60.95;96560.38;10537373;28;2521;-43
2022/10/03 06:48:43;;;;;;;;;;;;;;;20.57;60.63;96563.81;10529062;28;2395;-43
2022/10/03 06:53:43;;;;;;;;;;;;;;;20.58;60.95;96567.22;10538228;28;2489;-42
2022/10/03 06:58:53;;;;;;;;;;;;;;;20.58;60.74;96568.03;10545871;28;2693;-45
2022/10/03 07:04:29;;;;;;;;;;;;;;;20.59;60.68;96566.19;10532400;27;2456;-43
2022/10/03 07:09:41;;;;;;;;;;;;;;;20.58;60.29;96572.50;10499327;28;2554;-43
2022/10/03 07:14:45;;;;;;;;;;;;;;;20.57;60.27;96561.16;10535901;28;2376;-43
2022/10/03 07:20:04;;;;;;;;;;;;;;;20.57;60.57;96566.44;10513927;28;2518;-44
2022/10/03 07:25:24;;;;;;;;;;;;;;;20.58;60.55;96565.41;10518535;28;2529;-43
2022/10/03 07:30:25;;;;;;;;;;;;;;;20.60;60.15;96583.56;10508972;28;2540;-43
2022/10/03 07:35:25;;;;;;;;;;;;;;;20.59;60.44;96589.88;10535769;28;2447;-49
2022/10/03 07:40:41;;;;;;;;;;;;;;;20.59;59.93;96592.50;10505577;28;2261;-43
2022/10/03 07:45:46;;;;;;;;;;;;;;;20.58;59.40;96599.66;10533644;28;2375;-44
2022/10/03 07:50:57;;;;;;;;;;;;;;;20.58;60.26;96601.47;10552885;27;2704;-42
2022/10/03 07:56:16;;;;;;;;;;;;;;;20.57;60.13;96607.78;10531295;28;2413;-43
2022/10/03 08:01:16;;;;;;;;;;;;;;;20.57;59.42;96607.78;10523297;28;2261;-44
2022/10/03 08:06:19;;;;;;;;;;;;;;;20.55;60.08;96602.78;10522789;28;2451;-43
2022/10/03 08:11:40;;;;;;;;;;;;;;;20.56;59.85;96603.56;10549488;27;2459;-43
2022/10/03 08:16:52;;;;;;;;;;;;;;;20.56;59.87;96607.00;10546653;27;2448;-43
2022/10/03 08:22:04;;;;;;;;;;;;;;;20.56;60.02;96614.91;10542348;28;1887;-43
2022/10/03 08:27:10;;;;;;;;;;;;;;;20.56;59.87;96614.91;10525247;28;1947;-43
2022/10/03 08:32:29;;;;;;;;;;;;;;;20.58;59.38;96627.81;10534290;28;1984;-43
2022/10/03 08:37:44;;;;;;;;;;;;;;;20.56;59.46;96628.09;10526936;28;1920;-43
2022/10/03 08:42:57;;;;;;;;;;;;;;;20.56;59.29;96628.09;10546718;27;2220;-43
2022/10/03 08:48:08;;;;;;;;;;;;;;;20.55;59.60;96631.75;10533060;28;1935;-43
2022/10/03 08:53:29;;;;;;;;;;;;;;;20.55;59.00;96642.28;10532479;28;1910;-44
2022/10/03 08:58:30;;;;;;;;;;;;;;;20.55;59.06;96641.47;10503451;28;1893;-43
2022/10/03 09:03:48;;;;;;;;;;;;;;;20.52;58.95;96637.53;10529345;28;2017;-44
2022/10/03 09:08:49;;;;;;;;;;;;;;;20.52;58.52;96637.53;10516599;28;2119;-42
2022/10/03 09:14:03;;;;;;;;;;;;;;;20.53;58.42;96631.19;10526171;28;1699;-44
2022/10/03 09:19:13;;;;;;;;;;;;;;;20.57;57.81;96636.75;10554908;27;1921;-44
2022/10/03 09:24:14;;;;;;;;;;;;;;;20.57;58.38;96634.91;10554577;27;2019;-45
2022/10/03 09:29:17;;;;;;;;;;;;;;;20.58;58.10;96641.78;10537577;28;1946;-44
2022/10/03 09:34:36;;;;;;;;;;;;;;;20.56;57.88;96643.88;10536696;28;1939;-44
2022/10/03 09:39:53;;;;;;;;;;;;;;;20.55;58.11;96647.56;10543058;28;1694;-44
2022/10/03 09:44:58;;;;;;;;;;;;;;;20.57;58.29;96647.28;10502871;28;1954;-43
2022/10/03 09:50:18;;;;;;;;;;;;;;;20.58;57.96;96635.72;10557347;27;1999;-43
2022/10/03 09:55:28;;;;;;;;;;;;;;;20.56;58.17;96638.63;10541799;28;1923;-46
2022/10/03 10:00:48;;;;;;;;;;;;;;;20.57;58.25;96634.13;10544850;28;1958;-43
2022/10/03 10:06:03;;;;;;;;;;;;;;;20.58;58.13;96633.09;10562058;27;1919;-45
2022/10/03 10:11:06;;;;;;;;;;;;;;;20.58;58.04;96627.81;10542318;28;2038;-42
2022/10/03 10:16:21;;;;;;;;;;;;;;;20.59;58.36;96629.38;10543003;28;2053;-42
2022/10/03 10:21:21;;;;;;;;;;;;;;;20.59;58.14;96618.84;10538387;28;2097;-42
2022/10/03 10:26:28;;;;;;;;;;;;;;;20.60;57.86;96615.19;10537897;28;1823;-45
2022/10/03 10:31:47;;;;;;;;;;;;;;;20.65;58.44;96616.00;10549650;28;1967;-45
2022/10/03 10:37:07;;;;;;;;;;;;;;;20.66;57.22;96617.63;10509738;28;2100;-43
2022/10/03 10:42:22;;;;;;;;;;;;;;;20.69;57.92;96606.56;10512801;28;1887;-45
2022/10/03 10:47:29;;;;;;;;;;;;;;;20.71;58.15;96604.47;10525391;28;2026;-43
2022/10/03 10:52:32;;;;;;;;;;;;;;;20.75;57.37;96607.41;10520321;28;2074;-45
2022/10/03 10:57:45;;;;;;;;;;;;;;;20.80;58.46;96608.22;10525829;28;2089;-42
2022/10/03 11:02:45;;;;;;;;;;;;;;;20.81;57.75;96615.06;10537299;28;1997;-43
2022/10/03 11:08:03;;;;;;;;;;;;;;;20.82;57.23;96600.84;10532893;28;1931;-44
2022/10/03 11:13:21;;;;;;;;;;;;;;;20.86;57.02;96606.41;10559646;27;1974;-43
2022/10/03 11:18:31;;;;;;;;;;;;;;;20.88;57.24;96597.19;10555286;28;1951;-43
2022/10/03 11:23:34;;;;;;;;;;;;;;;20.92;57.07;96595.63;10545582;28;1906;-44
2022/10/03 11:28:53;;;;;;;;;;;;;;;20.93;56.84;96588.53;10561256;28;1961;-45
2022/10/03 11:34:16;;;;;;;;;;;;;;;20.99;56.42;96590.94;10534941;28;1893;-44
2022/10/03 11:39:36;;;;;;;;;;;;;;;21.12;56.14;96579.19;10538420;28;2478;-45
2022/10/03 11:44:40;;;;;;;;;;;;;;;21.00;57.00;96579.34;10526738;28;2412;-45
2022/10/03 11:49:46;;;;;;;;;;;;;;;21.10;57.83;96585.75;10543597;27;2383;-45
2022/10/03 11:54:47;;;;;;;;;;;;;;;21.15;56.15;96580.47;10535548;28;2288;-45
2022/10/03 11:59:51;;;;;;;;;;;;;;;21.14;56.02;96578.91;10534896;28;2451;-43
2022/10/03 12:04:54;;;;;;;;;;;;;;;21.18;55.37;96572.06;10530660;28;2835;-42
2022/10/03 12:10:32;;;;;;;;;;;;;;;21.15;55.90;96567.31;10535580;28;2274;-43
2022/10/03 12:15:37;;;;;;;;;;;;;;;21.03;56.01;96565.69;10517095;28;2531;-44
2022/10/03 12:21:06;;;;;;;;;;;;;;;21.12;54.80;96565.19;10510386;28;2795;-43
2022/10/03 12:26:07;;;;;;;;;;;;;;;21.11;54.82;96555.69;10519979;28;2294;-43
2022/10/03 12:31:16;;;;;;;;;;;;;;;21.13;54.57;96559.66;10527015;28;2452;-44
2022/10/03 12:36:18;;;;;;;;;;;;;;;21.15;54.52;96556.75;10539265;28;2719;-44
2022/10/03 12:41:24;;;;;;;;;;;;;;;21.14;54.27;96557.81;10532349;28;2444;-43
2022/10/03 12:46:29;;;;;;;;;;;;;;;21.14;54.58;96560.47;10510371;28;2453;-43
2022/10/03 12:51:36;;;;;;;;;;;;;;;21.12;54.41;96557.28;10525850;28;2275;-43
2022/10/03 12:57:06;;;;;;;;;;;;;;;21.13;54.78;96548.31;10532584;28;2321;-43
2022/10/03 13:02:07;;;;;;;;;;;;;;;21.08;56.53;96544.59;10546043;28;2407;-46
2022/10/03 13:07:13;;;;;;;;;;;;;;;21.11;55.24;96545.13;10525466;28;2449;-43
2022/10/03 13:12:27;;;;;;;;;;;;;;;21.13;55.00;96533.28;10536436;28;2366;-46
2022/10/03 13:17:48;;;;;;;;;;;;;;;21.16;54.55;96527.53;10541323;28;2624;-43
2022/10/03 13:22:48;;;;;;;;;;;;;;;21.21;54.74;96534.63;10525314;28;2462;-43
2022/10/03 13:27:50;;;;;;;;;;;;;;;21.23;54.16;96541.25;10526508;28;2515;-44
2022/10/03 13:33:07;;;;;;;;;;;;;;;21.20;54.50;96543.59;10528490;28;2291;-44
2022/10/03 13:38:17;;;;;;;;;;;;;;;21.23;54.83;96538.59;10536190;28;2666;-43
2022/10/03 13:43:19;;;;;;;;;;;;;;;21.23;54.83;96535.97;10532376;28;2473;-44
2022/10/03 13:48:21;;;;;;;;;;;;;;;21.23;54.76;96530.69;10543148;28;2419;-45
2022/10/03 13:53:42;;;;;;;;;;;;;;;21.18;55.50;96530.69;10550080;27;2368;-45
2022/10/03 13:59:11;;;;;;;;;;;;;;;21.08;53.01;96520.88;10522853;28;2663;-44
2022/10/03 14:04:24;;;;;;;;;;;;;;;20.93;53.56;96518.16;10487122;28;2452;-42
2022/10/03 14:09:24;;;;;;;;;;;;;;;21.00;54.88;96500.25;10524272;28;2482;-42
2022/10/03 14:14:25;;;;;;;;;;;;;;;21.05;54.96;96497.69;10523523;28;2338;-42
2022/10/03 14:19:32;;;;;;;;;;;;;;;21.05;54.85;96505.59;10523666;28;2409;-45
2022/10/03 14:24:48;;;;;;;;;;;;;;;21.04;54.74;96504.00;10543439;28;2547;-42
2022/10/03 14:29:52;;;;;;;;;;;;;;;20.98;54.04;96507.63;10524115;28;2341;-43
2022/10/03 14:34:53;;;;;;;;;;;;;;;20.97;53.61;96507.91;10534856;28;2584;-43
2022/10/03 14:40:27;;;;;;;;;;;;;;;20.96;54.09;96514.22;10513348;28;2530;-44
2022/10/03 14:45:30;;;;;;;;;;;;;;;20.97;53.70;96513.16;10517753;28;2312;-43
2022/10/03 14:50:30;;;;;;;;;;;;;;;21.01;54.32;96516.88;10515770;28;2542;-46
2022/10/03 14:55:32;;;;;;;;;;;;;;;21.04;54.58;96513.78;10518067;28;2319;-43
2022/10/03 15:00:37;;;;;;;;;;;;;;;21.04;54.52;96501.34;10526109;28;2327;-44
2022/10/03 15:05:47;;;;;;;;;;;;;;;21.04;54.08;96503.22;10516596;28;2467;-44
2022/10/03 15:10:49;;;;;;;;;;;;;;;21.01;53.83;96493.16;10539150;28;2446;-44
2022/10/03 15:15:58;;;;;;;;;;;;;;;21.03;53.96;96494.53;10503144;28;2439;-46
2022/10/03 15:21:01;;;;;;;;;;;;;;;21.03;54.06;96491.88;10525478;28;2485;-42
2022/10/03 15:26:07;;;;;;;;;;;;;;;21.04;54.38;96496.09;10527426;28;2353;-44
2022/10/03 15:31:21;;;;;;;;;;;;;;;21.04;54.18;96498.72;10531026;28;2450;-45
2022/10/03 15:36:23;;;;;;;;;;;;;;;21.04;53.81;96497.94;10514914;28;2457;-43
2022/10/03 15:41:24;;;;;;;;;;;;;;;21.04;54.43;96497.94;10523933;28;2417;-42
2022/10/03 15:46:34;;;;;;;;;;;;;;;21.05;54.10;96494.25;10517972;28;2455;-43
2022/10/03 15:51:35;;;;;;;;;;;;;;;21.05;54.28;96492.41;10517896;28;2461;-42
2022/10/03 15:56:39;;;;;;;;;;;;;;;21.06;54.41;96496.63;10523926;28;2472;-43
2022/10/03 16:01:41;;;;;;;;;;;;;;;21.05;54.38;96496.88;10550100;28;2547;-42
2022/10/03 16:07:06;;;;;;;;;;;;;;;21.04;53.96;96496.09;10513082;28;2565;-42
2022/10/03 16:12:25;;;;;;;;;;;;;;;21.04;53.83;96497.94;10522651;28;2482;-43
2022/10/03 16:17:44;;;;;;;;;;;;;;;21.02;53.86;96490.28;10506100;28;2528;-42
2022/10/03 16:22:55;;;;;;;;;;;;;;;21.02;53.90;96489.47;10503344;28;2322;-42
2022/10/03 16:28:06;;;;;;;;;;;;;;;21.04;53.79;96493.44;10545128;27;2390;-44
2022/10/03 16:33:16;;;;;;;;;;;;;;;21.02;53.56;96500.03;10519780;28;2505;-43
2022/10/03 16:38:18;;;;;;;;;;;;;;;21.00;53.42;96502.91;10544447;28;2438;-46
2022/10/03 16:43:19;;;;;;;;;;;;;;;21.01;53.63;96499.22;10556922;27;2284;-42
2022/10/03 16:53:43;;;;;;;;;;;;;;;20.99;53.74;96503.97;10549153;27;2462;-42
2022/10/03 16:58:47;;;;;;;;;;;;;;;21.01;53.46;96504.50;10542528;28;2331;-44
2022/10/03 17:03:49;;;;;;;;;;;;;;;21.01;53.78;96503.69;10526282;28;2245;-43
2022/10/03 17:08:51;;;;;;;;;;;;;;;21.02;53.30;96516.63;10528439;28;2379;-43
2022/10/03 17:13:52;;;;;;;;;;;;;;;21.02;53.53;96511.38;10549549;27;2451;-43
2022/10/03 17:19:16;;;;;;;;;;;;;;;21.03;53.21;96510.34;10529254;28;2476;-42
2022/10/03 17:24:22;;;;;;;;;;;;;;;21.18;52.60;96512.22;10501926;28;2317;-45
2022/10/03 17:29:36;;;;;;;;;;;;;;;21.18;52.22;96508.81;10530030;27;2386;-42
2022/10/03 17:34:37;;;;;;;;;;;;;;;21.14;52.19;96508.53;10529344;28;2560;-46
2022/10/03 17:39:42;;;;;;;;;;;;;;;21.16;52.09;96511.69;10516481;28;2435;-42
2022/10/03 17:44:45;;;;;;;;;;;;;;;21.29;52.04;96515.69;10526788;27;2378;-44
2022/10/03 17:49:56;;;;;;;;;;;;;;;21.36;51.94;96513.59;10507472;28;2441;-43
2022/10/03 17:55:02;;;;;;;;;;;;;;;21.43;51.94;96516.78;10520324;28;2462;-44
2022/10/03 18:00:06;;;;;;;;;;;;;;;21.44;51.79;96523.63;10534046;28;2541;-45
2022/10/03 18:05:15;;;;;;;;;;;;;;;21.42;51.69;96529.19;10522147;28;2449;-44
2022/10/03 18:10:29;;;;;;;;;;;;;;;21.16;51.23;96522.25;10550642;27;2460;-47
2022/10/03 18:15:48;;;;;;;;;;;;;;;21.00;50.32;96523.97;10504872;28;2493;-43
2022/10/03 18:20:49;;;;;;;;;;;;;;;20.94;50.84;96517.09;10523508;28;2435;-43
2022/10/03 18:25:59;;;;;;;;;;;;;;;21.12;51.14;96509.84;10534038;27;2336;-45
2022/10/03 18:31:03;;;;;;;;;;;;;;;21.25;50.49;96514.59;10534818;28;2503;-48
2022/10/03 18:36:10;;;;;;;;;;;;;;;21.26;50.56;96508.28;10516126;28;2745;-45
2022/10/03 18:41:13;;;;;;;;;;;;;;;21.28;51.36;96519.38;10517686;28;2393;-43
2022/10/03 18:46:21;;;;;;;;;;;;;;;21.22;51.69;96515.94;10502172;28;2247;-44
2022/10/03 18:51:21;;;;;;;;;;;;;;;21.28;52.21;96514.09;10532646;28;2484;-43
2022/10/03 18:56:22;;;;;;;;;;;;;;;21.29;52.21;96523.63;10506727;28;2891;-45
2022/10/03 19:01:29;;;;;;;;;;;;;;;21.22;52.27;96509.88;10507959;28;2307;-44
2022/10/03 19:06:32;;;;;;;;;;;;;;;21.21;52.58;96519.63;10513756;28;2324;-44
2022/10/03 19:11:33;;;;;;;;;;;;;;;21.21;52.55;96516.97;10508797;28;2292;-45
2022/10/03 19:16:39;;;;;;;;;;;;;;;21.18;52.73;96522.78;10531000;28;2478;-44
2022/10/03 19:21:40;;;;;;;;;;;;;;;21.22;52.67;96517.78;10531293;28;2372;-44
2022/10/03 19:26:44;;;;;;;;;;;;;;;21.15;52.62;96515.38;10514819;28;2363;-44
2022/10/03 19:32:01;;;;;;;;;;;;;;;21.14;52.71;96510.38;10481835;28;2360;-44
2022/10/03 19:37:01;;;;;;;;;;;;;;;21.13;52.51;96506.13;10519896;28;2344;-43
2022/10/03 19:42:21;;;;;;;;;;;;;;;21.13;52.50;96506.94;10525560;28;2291;-42
2022/10/03 19:47:31;;;;;;;;;;;;;;;21.16;52.43;96505.63;10526079;28;2346;-43
2022/10/03 19:52:32;;;;;;;;;;;;;;;21.08;52.44;96506.13;10529473;28;2346;-43
2022/10/03 19:57:36;;;;;;;;;;;;;;;21.13;52.45;96506.13;10548009;27;2482;-44
2022/10/03 20:02:36;;;;;;;;;;;;;;;21.22;52.36;96512.50;10521104;28;2363;-42
2022/10/03 20:07:44;;;;;;;;;;;;;;;21.20;52.30;96507.50;10521818;28;2086;-45
2022/10/03 20:12:46;;;;;;;;;;;;;;;21.14;52.17;96507.72;10517198;28;2323;-47
2022/10/03 20:17:46;;;;;;;;;;;;;;;21.12;52.55;96509.84;10534234;27;2306;-43
2022/10/03 20:22:48;;;;;;;;;;;;;;;20.93;49.82;96514.75;10515873;28;2179;-43
2022/10/03 20:27:49;;;;;;;;;;;;;;;20.30;46.85;96515.69;10522679;28;2325;-44
2022/10/03 20:32:50;;;;;;;;;;;;;;;20.38;50.02;96506.53;10543909;28;2334;-44
2022/10/03 20:37:50;;;;;;;;;;;;;;;20.55;50.62;96509.78;10541162;28;2355;-45
2022/10/03 20:42:50;;;;;;;;;;;;;;;20.65;50.45;96500.09;10546035;28;2268;-44
2022/10/03 20:48:05;;;;;;;;;;;;;;;20.73;50.51;96491.72;10551435;27;2609;-45
2022/10/03 20:53:19;;;;;;;;;;;;;;;20.86;50.66;96496.53;10529375;28;2342;-47
2022/10/03 20:58:30;;;;;;;;;;;;;;;20.95;50.69;96497.63;10563189;27;2291;-46
2022/10/03 21:03:33;;;;;;;;;;;;;;;21.02;50.41;96490.28;10531183;28;2350;-42
2022/10/03 21:08:34;;;;;;;;;;;;;;;21.05;50.36;96491.63;10536292;28;2329;-44
2022/10/03 21:13:37;;;;;;;;;;;;;;;21.12;50.23;96488.75;10526570;28;2409;-45
2022/10/03 21:18:39;;;;;;;;;;;;;;;21.16;50.04;96492.44;10539802;28;2376;-44
2022/10/03 21:23:41;;;;;;;;;;;;;;;21.14;50.17;96491.91;10538636;28;2344;-44
2022/10/03 21:28:41;;;;;;;;;;;;;;;21.15;50.05;96483.75;10524597;28;2439;-46
2022/10/03 21:33:51;;;;;;;;;;;;;;;21.15;50.28;96477.66;10538102;28;2432;-47
2022/10/03 21:38:51;;;;;;;;;;;;;;;21.15;50.07;96473.19;10512150;28;2400;-44
2022/10/03 21:44:01;;;;;;;;;;;;;;;21.13;49.99;96470.03;10511120;28;2458;-47
2022/10/03 21:49:20;;;;;;;;;;;;;;;21.11;50.10;96480.03;10541064;27;2259;-44
2022/10/03 21:54:27;;;;;;;;;;;;;;;21.10;50.37;96485.56;10509771;28;2332;-43
2022/10/03 21:59:38;;;;;;;;;;;;;;;21.15;50.11;96477.66;10528268;28;2335;-46
2022/10/03 22:04:53;;;;;;;;;;;;;;;21.12;50.14;96460.53;10513537;28;2274;-47
2022/10/03 22:09:54;;;;;;;;;;;;;;;21.11;49.80;96451.03;10521590;28;2326;-48
2022/10/03 22:15:14;;;;;;;;;;;;;;;21.09;49.96;96439.97;10499706;28;2706;-45
2022/10/03 22:20:33;;;;;;;;;;;;;;;21.05;49.87;96434.44;10523021;28;2317;-46
2022/10/03 22:25:48;;;;;;;;;;;;;;;21.06;49.69;96417.53;10540086;28;2477;-48
2022/10/03 22:31:07;;;;;;;;;;;;;;;21.02;49.82;96413.84;10535285;27;2397;-43
2022/10/03 22:36:08;;;;;;;;;;;;;;;21.00;49.74;96429.09;10517693;28;2489;-45
2022/10/03 22:41:10;;;;;;;;;;;;;;;20.96;49.97;96414.84;10534253;28;2363;-45
2022/10/03 22:46:19;;;;;;;;;;;;;;;21.00;49.81;96402.75;10535113;28;2313;-42
2022/10/03 22:51:20;;;;;;;;;;;;;;;20.99;49.57;96397.72;10523417;28;2349;-44
2022/10/03 22:56:40;;;;;;;;;;;;;;;21.02;49.62;96400.66;10526786;28;2494;-44
2022/10/03 23:01:41;;;;;;;;;;;;;;;20.99;49.62;96395.91;10528716;28;2307;-43
2022/10/03 23:06:52;;;;;;;;;;;;;;;20.96;49.58;96414.06;10528789;28;2340;-44
2022/10/03 23:11:52;;;;;;;;;;;;;;;20.97;49.28;96400.63;10523488;28;2522;-48
2022/10/03 23:17:11;;;;;;;;;;;;;;;20.95;49.24;96400.09;10483168;28;2434;-45
2022/10/03 23:22:13;;;;;;;;;;;;;;;20.93;49.53;96401.41;10515249;28;2335;-44
2022/10/03 23:27:25;;;;;;;;;;;;;;;20.91;49.58;96399.03;10523253;28;2369;-46
2022/10/03 23:32:48;;;;;;;;;;;;;;;20.89;49.50;96401.16;10523617;28;2287;-44
2022/10/03 23:37:49;;;;;;;;;;;;;;;20.85;49.40;96392.19;10518468;28;2325;-44
2022/10/03 23:43:02;;;;;;;;;;;;;;;20.86;49.60;96392.94;10518853;28;2400;-45
2022/10/03 23:48:04;;;;;;;;;;;;;;;20.83;49.50;96396.13;10529580;28;2324;-45
2022/10/03 23:53:04;;;;;;;;;;;;;;;20.78;49.31;96399.53;10536092;28;2380;-43
2022/10/03 23:58:14;;;;;;;;;;;;;;;20.84;49.45;96405.59;10523831;28;2288;-44
